sensor_id;sensor_type;location;lat;lon;timestamp;temperature;humidity
24446;DHT22;13347;50.984;5.822;2023-03-23T00:02:01;13.10;1.00
24446;DHT22;13347;50.984;5.822;2023-03-23T00:04:28;13.20;1.00
24446;DHT22;13347;50.984;5.822;2023-03-23T00:06:57;13.20;1.00
24446;DHT22;13347;50.984;5.822;2023-03-23T00:09:26;13.10;1.00
24446;DHT22;13347;50.984;5.822;2023-03-23T00:11:53;13.10;1.00
24446;DHT22;13347;50.984;5.822;2023-03-23T00:14:22;13.20;1.00
24446;DHT22;13347;50.984;5.822;2023-03-23T00:16:50;13.10;1.00
24446;DHT22;13347;50.984;5.822;2023-03-23T00:19:20;13.10;1.00
24446;DHT22;13347;50.984;5.822;2023-03-23T00:21:47;13.10;1.00
24446;DHT22;13347;50.984;5.822;2023-03-23T00:24:16;13.20;1.00
24446;DHT22;13347;50.984;5.822;2023-03-23T00:26:44;13.10;1.00
24446;DHT22;13347;50.984;5.822;2023-03-23T00:29:12;13.10;1.00
24446;DHT22;13347;50.984;5.822;2023-03-23T00:31:40;13.10;1.00
24446;DHT22;13347;50.984;5.822;2023-03-23T00:34:06;13.10;1.00
24446;DHT22;13347;50.984;5.822;2023-03-23T00:36:33;13.10;1.00
24446;DHT22;13347;50.984;5.822;2023-03-23T00:39:08;13.10;1.00
24446;DHT22;13347;50.984;5.822;2023-03-23T00:41:36;13.10;1.00
24446;DHT22;13347;50.984;5.822;2023-03-23T00:44:04;13.20;1.00
24446;DHT22;13347;50.984;5.822;2023-03-23T00:46:30;13.20;1.00
24446;DHT22;13347;50.984;5.822;2023-03-23T00:48:57;13.20;1.00
24446;DHT22;13347;50.984;5.822;2023-03-23T00:51:24;13.20;1.00
24446;DHT22;13347;50.984;5.822;2023-03-23T00:53:51;13.20;1.00
24446;DHT22;13347;50.984;5.822;2023-03-23T00:56:18;13.30;1.00
24446;DHT22;13347;50.984;5.822;2023-03-23T00:58:46;13.30;1.00
24446;DHT22;13347;50.984;5.822;2023-03-23T01:01:13;13.30;1.00
24446;DHT22;13347;50.984;5.822;2023-03-23T01:03:40;13.30;1.00
24446;DHT22;13347;50.984;5.822;2023-03-23T01:06:08;13.20;1.00
24446;DHT22;13347;50.984;5.822;2023-03-23T01:08:38;13.20;1.00
24446;DHT22;13347;50.984;5.822;2023-03-23T01:11:11;13.10;1.00
24446;DHT22;13347;50.984;5.822;2023-03-23T01:13:38;13.10;1.00
24446;DHT22;13347;50.984;5.822;2023-03-23T01:16:07;13.00;1.00
24446;DHT22;13347;50.984;5.822;2023-03-23T01:18:34;13.00;1.00
24446;DHT22;13347;50.984;5.822;2023-03-23T01:21:03;12.90;1.00
24446;DHT22;13347;50.984;5.822;2023-03-23T01:23:31;12.90;1.00
24446;DHT22;13347;50.984;5.822;2023-03-23T01:26:02;12.90;1.00
24446;DHT22;13347;50.984;5.822;2023-03-23T01:28:29;12.80;1.00
24446;DHT22;13347;50.984;5.822;2023-03-23T01:30:58;12.80;18.70
24446;DHT22;13347;50.984;5.822;2023-03-23T01:33:27;12.80;47.60
24446;DHT22;13347;50.984;5.822;2023-03-23T01:35:54;12.70;99.90
24446;DHT22;13347;50.984;5.822;2023-03-23T01:38:21;12.70;99.90
24446;DHT22;13347;50.984;5.822;2023-03-23T01:40:48;12.60;1.00
24446;DHT22;13347;50.984;5.822;2023-03-23T01:43:15;12.60;1.00
24446;DHT22;13347;50.984;5.822;2023-03-23T01:45:42;12.60;1.00
24446;DHT22;13347;50.984;5.822;2023-03-23T01:48:11;12.60;1.00
24446;DHT22;13347;50.984;5.822;2023-03-23T01:50:43;12.60;1.00
24446;DHT22;13347;50.984;5.822;2023-03-23T01:53:12;12.50;1.00
24446;DHT22;13347;50.984;5.822;2023-03-23T01:55:42;12.60;1.00
24446;DHT22;13347;50.984;5.822;2023-03-23T01:58:13;12.50;1.00
24446;DHT22;13347;50.984;5.822;2023-03-23T02:00:42;12.50;1.00
24446;DHT22;13347;50.984;5.822;2023-03-23T02:03:08;12.50;1.00
24446;DHT22;13347;50.984;5.822;2023-03-23T02:05:39;12.60;1.00
24446;DHT22;13347;50.984;5.822;2023-03-23T02:08:08;12.60;1.00
24446;DHT22;13347;50.984;5.822;2023-03-23T02:10:36;12.60;1.00
24446;DHT22;13347;50.984;5.822;2023-03-23T02:13:04;12.80;1.00
24446;DHT22;13347;50.984;5.822;2023-03-23T02:15:34;12.90;1.00
24446;DHT22;13347;50.984;5.822;2023-03-23T02:18:06;12.90;1.00
24446;DHT22;13347;50.984;5.822;2023-03-23T02:21:01;13.00;1.00
24446;DHT22;13347;50.984;5.822;2023-03-23T02:23:47;12.90;1.00
24446;DHT22;13347;50.984;5.822;2023-03-23T02:26:33;12.90;1.00
24446;DHT22;13347;50.984;5.822;2023-03-23T02:29:11;12.80;1.00
24446;DHT22;13347;50.984;5.822;2023-03-23T02:31:45;12.80;1.00
24446;DHT22;13347;50.984;5.822;2023-03-23T02:34:16;12.80;1.00
24446;DHT22;13347;50.984;5.822;2023-03-23T02:36:45;12.80;1.00
24446;DHT22;13347;50.984;5.822;2023-03-23T02:39:13;12.70;1.00
24446;DHT22;13347;50.984;5.822;2023-03-23T02:41:43;12.80;1.00
24446;DHT22;13347;50.984;5.822;2023-03-23T02:44:11;12.80;1.00
24446;DHT22;13347;50.984;5.822;2023-03-23T02:46:39;12.70;1.00
24446;DHT22;13347;50.984;5.822;2023-03-23T02:49:06;12.80;1.00
24446;DHT22;13347;50.984;5.822;2023-03-23T02:51:35;12.80;1.00
24446;DHT22;13347;50.984;5.822;2023-03-23T02:54:03;12.70;1.00
24446;DHT22;13347;50.984;5.822;2023-03-23T02:56:32;12.70;1.00
24446;DHT22;13347;50.984;5.822;2023-03-23T02:58:59;12.70;1.00
24446;DHT22;13347;50.984;5.822;2023-03-23T03:01:46;12.70;1.00
24446;DHT22;13347;50.984;5.822;2023-03-23T03:04:15;12.70;1.00
24446;DHT22;13347;50.984;5.822;2023-03-23T03:06:46;12.70;1.00
24446;DHT22;13347;50.984;5.822;2023-03-23T03:09:16;12.70;1.00
24446;DHT22;13347;50.984;5.822;2023-03-23T03:11:45;12.70;1.00
24446;DHT22;13347;50.984;5.822;2023-03-23T03:14:13;12.70;1.00
24446;DHT22;13347;50.984;5.822;2023-03-23T03:16:44;12.70;1.00
24446;DHT22;13347;50.984;5.822;2023-03-23T03:19:12;12.70;1.00
24446;DHT22;13347;50.984;5.822;2023-03-23T03:21:42;12.70;1.00
24446;DHT22;13347;50.984;5.822;2023-03-23T03:24:13;12.70;1.00
24446;DHT22;13347;50.984;5.822;2023-03-23T03:26:42;12.70;1.00
24446;DHT22;13347;50.984;5.822;2023-03-23T03:29:16;12.80;1.00
24446;DHT22;13347;50.984;5.822;2023-03-23T03:31:45;12.80;1.00
24446;DHT22;13347;50.984;5.822;2023-03-23T03:34:13;12.80;1.00
24446;DHT22;13347;50.984;5.822;2023-03-23T03:36:43;12.80;1.00
24446;DHT22;13347;50.984;5.822;2023-03-23T03:39:12;12.90;1.00
24446;DHT22;13347;50.984;5.822;2023-03-23T03:41:41;12.90;1.00
24446;DHT22;13347;50.984;5.822;2023-03-23T03:44:08;12.90;1.00
24446;DHT22;13347;50.984;5.822;2023-03-23T03:46:35;12.90;1.00
24446;DHT22;13347;50.984;5.822;2023-03-23T03:49:03;13.00;99.90
24446;DHT22;13347;50.984;5.822;2023-03-23T03:51:30;12.90;1.00
24446;DHT22;13347;50.984;5.822;2023-03-23T03:53:57;13.00;99.90
24446;DHT22;13347;50.984;5.822;2023-03-23T03:56:26;13.00;99.90
24446;DHT22;13347;50.984;5.822;2023-03-23T03:58:53;13.00;99.90
24446;DHT22;13347;50.984;5.822;2023-03-23T04:01:21;13.00;99.90
24446;DHT22;13347;50.984;5.822;2023-03-23T04:03:48;12.90;99.90
24446;DHT22;13347;50.984;5.822;2023-03-23T04:06:15;12.90;99.90
24446;DHT22;13347;50.984;5.822;2023-03-23T04:08:42;13.00;99.90
24446;DHT22;13347;50.984;5.822;2023-03-23T04:11:10;12.90;99.90
24446;DHT22;13347;50.984;5.822;2023-03-23T04:13:39;12.90;99.90
24446;DHT22;13347;50.984;5.822;2023-03-23T04:16:06;12.90;99.90
24446;DHT22;13347;50.984;5.822;2023-03-23T04:18:33;12.90;99.90
24446;DHT22;13347;50.984;5.822;2023-03-23T04:21:00;12.80;99.90
24446;DHT22;13347;50.984;5.822;2023-03-23T04:23:28;12.90;99.90
24446;DHT22;13347;50.984;5.822;2023-03-23T04:25:58;12.90;99.90
24446;DHT22;13347;50.984;5.822;2023-03-23T04:28:25;13.00;99.90
24446;DHT22;13347;50.984;5.822;2023-03-23T04:30:55;12.90;99.90
24446;DHT22;13347;50.984;5.822;2023-03-23T04:33:22;13.00;55.50
24446;DHT22;13347;50.984;5.822;2023-03-23T04:35:50;12.90;38.90
24446;DHT22;13347;50.984;5.822;2023-03-23T04:38:18;13.00;1.00
24446;DHT22;13347;50.984;5.822;2023-03-23T04:40:47;12.90;1.00
24446;DHT22;13347;50.984;5.822;2023-03-23T04:43:16;13.00;1.00
24446;DHT22;13347;50.984;5.822;2023-03-23T04:45:47;12.90;1.00
24446;DHT22;13347;50.984;5.822;2023-03-23T04:48:15;12.90;1.00
24446;DHT22;13347;50.984;5.822;2023-03-23T04:50:42;12.90;1.00
24446;DHT22;13347;50.984;5.822;2023-03-23T04:53:09;12.90;1.00
24446;DHT22;13347;50.984;5.822;2023-03-23T04:55:36;12.90;1.00
24446;DHT22;13347;50.984;5.822;2023-03-23T04:58:03;12.90;1.00
24446;DHT22;13347;50.984;5.822;2023-03-23T05:00:31;12.90;1.00
24446;DHT22;13347;50.984;5.822;2023-03-23T05:02:58;12.90;1.00
24446;DHT22;13347;50.984;5.822;2023-03-23T05:05:27;12.80;1.00
24446;DHT22;13347;50.984;5.822;2023-03-23T05:07:56;12.90;1.00
24446;DHT22;13347;50.984;5.822;2023-03-23T05:10:23;12.90;1.00
24446;DHT22;13347;50.984;5.822;2023-03-23T05:12:50;12.80;1.00
24446;DHT22;13347;50.984;5.822;2023-03-23T05:15:19;12.90;1.00
24446;DHT22;13347;50.984;5.822;2023-03-23T05:17:46;12.90;1.00
24446;DHT22;13347;50.984;5.822;2023-03-23T05:20:14;12.90;99.90
24446;DHT22;13347;50.984;5.822;2023-03-23T05:22:45;12.90;99.90
24446;DHT22;13347;50.984;5.822;2023-03-23T05:25:14;12.90;1.00
24446;DHT22;13347;50.984;5.822;2023-03-23T05:27:44;12.90;1.00
24446;DHT22;13347;50.984;5.822;2023-03-23T05:30:14;12.80;1.00
24446;DHT22;13347;50.984;5.822;2023-03-23T05:32:42;12.90;1.00
24446;DHT22;13347;50.984;5.822;2023-03-23T05:35:10;12.90;1.00
24446;DHT22;13347;50.984;5.822;2023-03-23T05:37:38;12.90;1.00
24446;DHT22;13347;50.984;5.822;2023-03-23T05:40:07;12.90;1.00
24446;DHT22;13347;50.984;5.822;2023-03-23T05:42:34;12.90;1.00
24446;DHT22;13347;50.984;5.822;2023-03-23T05:45:01;12.90;1.00
24446;DHT22;13347;50.984;5.822;2023-03-23T05:47:28;12.90;1.00
24446;DHT22;13347;50.984;5.822;2023-03-23T05:49:55;12.90;1.00
24446;DHT22;13347;50.984;5.822;2023-03-23T05:52:22;12.80;1.00
24446;DHT22;13347;50.984;5.822;2023-03-23T05:54:50;12.80;1.00
24446;DHT22;13347;50.984;5.822;2023-03-23T05:57:19;12.80;1.00
24446;DHT22;13347;50.984;5.822;2023-03-23T05:59:47;12.80;1.00
24446;DHT22;13347;50.984;5.822;2023-03-23T06:02:14;12.80;1.00
24446;DHT22;13347;50.984;5.822;2023-03-23T06:04:41;12.70;1.00
24446;DHT22;13347;50.984;5.822;2023-03-23T06:07:08;12.70;1.00
24446;DHT22;13347;50.984;5.822;2023-03-23T06:09:39;12.70;1.00
24446;DHT22;13347;50.984;5.822;2023-03-23T06:12:06;12.80;1.00
24446;DHT22;13347;50.984;5.822;2023-03-23T06:14:36;12.80;1.00
24446;DHT22;13347;50.984;5.822;2023-03-23T06:17:03;12.70;1.00
24446;DHT22;13347;50.984;5.822;2023-03-23T06:19:31;12.70;1.00
24446;DHT22;13347;50.984;5.822;2023-03-23T06:21:59;12.70;1.00
24446;DHT22;13347;50.984;5.822;2023-03-23T06:24:27;12.70;1.00
24446;DHT22;13347;50.984;5.822;2023-03-23T06:26:54;12.80;1.00
24446;DHT22;13347;50.984;5.822;2023-03-23T06:29:21;12.80;1.00
24446;DHT22;13347;50.984;5.822;2023-03-23T06:31:50;12.80;1.00
24446;DHT22;13347;50.984;5.822;2023-03-23T06:34:19;12.90;1.00
24446;DHT22;13347;50.984;5.822;2023-03-23T06:36:46;12.90;1.00
24446;DHT22;13347;50.984;5.822;2023-03-23T06:39:13;12.90;1.00
24446;DHT22;13347;50.984;5.822;2023-03-23T06:41:41;12.90;99.90
24446;DHT22;13347;50.984;5.822;2023-03-23T06:44:07;12.90;1.00
24446;DHT22;13347;50.984;5.822;2023-03-23T06:46:38;12.90;99.90
24446;DHT22;13347;50.984;5.822;2023-03-23T06:49:07;12.90;99.90
24446;DHT22;13347;50.984;5.822;2023-03-23T06:51:33;12.90;99.90
24446;DHT22;13347;50.984;5.822;2023-03-23T06:54:01;13.00;99.90
24446;DHT22;13347;50.984;5.822;2023-03-23T06:56:28;13.00;99.90
24446;DHT22;13347;50.984;5.822;2023-03-23T06:58:55;13.00;99.90
24446;DHT22;13347;50.984;5.822;2023-03-23T07:01:22;13.10;99.90
24446;DHT22;13347;50.984;5.822;2023-03-23T07:03:49;13.10;99.90
24446;DHT22;13347;50.984;5.822;2023-03-23T07:06:17;13.10;99.90
24446;DHT22;13347;50.984;5.822;2023-03-23T07:08:44;13.10;99.90
24446;DHT22;13347;50.984;5.822;2023-03-23T07:11:11;13.10;99.90
24446;DHT22;13347;50.984;5.822;2023-03-23T07:13:38;13.10;99.90
24446;DHT22;13347;50.984;5.822;2023-03-23T07:16:06;13.10;99.90
24446;DHT22;13347;50.984;5.822;2023-03-23T07:18:33;13.10;99.90
24446;DHT22;13347;50.984;5.822;2023-03-23T07:21:00;13.10;99.90
24446;DHT22;13347;50.984;5.822;2023-03-23T07:23:29;13.20;99.90
24446;DHT22;13347;50.984;5.822;2023-03-23T07:25:56;13.20;99.90
24446;DHT22;13347;50.984;5.822;2023-03-23T07:28:23;13.20;99.90
24446;DHT22;13347;50.984;5.822;2023-03-23T07:30:50;13.20;99.90
24446;DHT22;13347;50.984;5.822;2023-03-23T07:33:17;13.20;76.50
24446;DHT22;13347;50.984;5.822;2023-03-23T07:35:44;13.20;99.90
24446;DHT22;13347;50.984;5.822;2023-03-23T07:38:12;13.20;99.90
24446;DHT22;13347;50.984;5.822;2023-03-23T07:40:41;13.30;99.90
24446;DHT22;13347;50.984;5.822;2023-03-23T07:43:08;13.30;99.90
24446;DHT22;13347;50.984;5.822;2023-03-23T07:45:35;13.40;99.90
24446;DHT22;13347;50.984;5.822;2023-03-23T07:48:02;13.40;99.90
24446;DHT22;13347;50.984;5.822;2023-03-23T07:50:29;13.40;99.90
24446;DHT22;13347;50.984;5.822;2023-03-23T07:52:58;13.40;99.90
24446;DHT22;13347;50.984;5.822;2023-03-23T07:55:25;13.40;99.90
24446;DHT22;13347;50.984;5.822;2023-03-23T07:57:54;13.40;99.90
24446;DHT22;13347;50.984;5.822;2023-03-23T08:00:21;13.40;1.00
24446;DHT22;13347;50.984;5.822;2023-03-23T08:02:50;13.50;99.90
24446;DHT22;13347;50.984;5.822;2023-03-23T08:05:17;13.50;99.90
24446;DHT22;13347;50.984;5.822;2023-03-23T08:07:44;13.50;1.00
24446;DHT22;13347;50.984;5.822;2023-03-23T08:10:11;13.50;1.00
24446;DHT22;13347;50.984;5.822;2023-03-23T08:12:39;13.60;99.90
24446;DHT22;13347;50.984;5.822;2023-03-23T08:15:08;13.50;99.90
24446;DHT22;13347;50.984;5.822;2023-03-23T08:17:38;13.60;99.90
24446;DHT22;13347;50.984;5.822;2023-03-23T08:20:05;13.50;99.90
24446;DHT22;13347;50.984;5.822;2023-03-23T08:22:40;13.80;99.90
24446;DHT22;13347;50.984;5.822;2023-03-23T08:25:09;13.90;99.90
24446;DHT22;13347;50.984;5.822;2023-03-23T08:27:36;13.80;99.90
24446;DHT22;13347;50.984;5.822;2023-03-23T08:30:10;13.70;99.90
24446;DHT22;13347;50.984;5.822;2023-03-23T08:32:37;13.70;99.90
24446;DHT22;13347;50.984;5.822;2023-03-23T08:35:04;13.60;99.90
24446;DHT22;13347;50.984;5.822;2023-03-23T08:37:32;13.60;99.90
24446;DHT22;13347;50.984;5.822;2023-03-23T08:39:59;13.60;99.90
24446;DHT22;13347;50.984;5.822;2023-03-23T08:42:32;13.60;1.00
24446;DHT22;13347;50.984;5.822;2023-03-23T08:45:00;13.50;99.90
24446;DHT22;13347;50.984;5.822;2023-03-23T08:47:29;13.50;99.90
24446;DHT22;13347;50.984;5.822;2023-03-23T08:49:56;13.60;99.90
24446;DHT22;13347;50.984;5.822;2023-03-23T08:52:23;13.60;1.00
24446;DHT22;13347;50.984;5.822;2023-03-23T08:54:50;13.50;1.00
24446;DHT22;13347;50.984;5.822;2023-03-23T08:57:17;13.50;1.00
24446;DHT22;13347;50.984;5.822;2023-03-23T08:59:44;13.40;1.00
24446;DHT22;13347;50.984;5.822;2023-03-23T09:02:11;13.40;1.00
24446;DHT22;13347;50.984;5.822;2023-03-23T09:04:40;13.40;1.00
24446;DHT22;13347;50.984;5.822;2023-03-23T09:07:08;13.40;1.00
24446;DHT22;13347;50.984;5.822;2023-03-23T09:09:36;13.50;1.00
24446;DHT22;13347;50.984;5.822;2023-03-23T09:12:04;13.50;1.00
24446;DHT22;13347;50.984;5.822;2023-03-23T09:14:31;13.50;1.00
24446;DHT22;13347;50.984;5.822;2023-03-23T09:16:58;13.50;1.00
24446;DHT22;13347;50.984;5.822;2023-03-23T09:19:26;13.40;42.40
24446;DHT22;13347;50.984;5.822;2023-03-23T09:21:54;13.10;80.80
24446;DHT22;13347;50.984;5.822;2023-03-23T09:24:21;12.90;1.00
24446;DHT22;13347;50.984;5.822;2023-03-23T09:26:48;12.70;1.00
24446;DHT22;13347;50.984;5.822;2023-03-23T09:29:15;12.70;1.00
24446;DHT22;13347;50.984;5.822;2023-03-23T09:31:42;12.80;1.00
24446;DHT22;13347;50.984;5.822;2023-03-23T09:34:12;12.80;1.00
24446;DHT22;13347;50.984;5.822;2023-03-23T09:36:40;12.90;1.00
24446;DHT22;13347;50.984;5.822;2023-03-23T09:39:10;12.90;1.00
24446;DHT22;13347;50.984;5.822;2023-03-23T09:41:42;12.90;1.00
24446;DHT22;13347;50.984;5.822;2023-03-23T09:44:14;12.90;1.00
24446;DHT22;13347;50.984;5.822;2023-03-23T09:46:48;12.80;34.80
24446;DHT22;13347;50.984;5.822;2023-03-23T09:49:17;12.60;1.00
24446;DHT22;13347;50.984;5.822;2023-03-23T09:51:46;11.90;99.90
24446;DHT22;13347;50.984;5.822;2023-03-23T09:54:18;11.50;99.90
24446;DHT22;13347;50.984;5.822;2023-03-23T09:56:46;11.20;99.90
24446;DHT22;13347;50.984;5.822;2023-03-23T09:59:16;11.10;48.90
24446;DHT22;13347;50.984;5.822;2023-03-23T10:01:45;10.90;1.00
24446;DHT22;13347;50.984;5.822;2023-03-23T10:04:15;10.90;1.00
24446;DHT22;13347;50.984;5.822;2023-03-23T10:06:45;10.80;1.00
24446;DHT22;13347;50.984;5.822;2023-03-23T10:09:14;10.80;1.00
24446;DHT22;13347;50.984;5.822;2023-03-23T10:11:45;10.70;23.80
24446;DHT22;13347;50.984;5.822;2023-03-23T10:14:18;10.80;99.90
24446;DHT22;13347;50.984;5.822;2023-03-23T10:16:48;10.80;99.90
24446;DHT22;13347;50.984;5.822;2023-03-23T10:19:18;10.80;99.90
24446;DHT22;13347;50.984;5.822;2023-03-23T10:21:47;11.00;99.90
24446;DHT22;13347;50.984;5.822;2023-03-23T10:24:17;11.00;99.90
24446;DHT22;13347;50.984;5.822;2023-03-23T10:26:54;10.90;99.90
24446;DHT22;13347;50.984;5.822;2023-03-23T10:29:24;11.10;99.90
24446;DHT22;13347;50.984;5.822;2023-03-23T10:31:54;11.50;99.90
24446;DHT22;13347;50.984;5.822;2023-03-23T10:34:24;11.80;99.90
24446;DHT22;13347;50.984;5.822;2023-03-23T10:36:56;11.80;99.90
24446;DHT22;13347;50.984;5.822;2023-03-23T10:39:23;11.50;99.90
24446;DHT22;13347;50.984;5.822;2023-03-23T10:41:54;11.60;99.90
24446;DHT22;13347;50.984;5.822;2023-03-23T10:44:23;11.70;99.90
24446;DHT22;13347;50.984;5.822;2023-03-23T10:46:54;11.80;99.90
24446;DHT22;13347;50.984;5.822;2023-03-23T10:49:23;11.90;99.90
24446;DHT22;13347;50.984;5.822;2023-03-23T10:51:53;12.00;99.90
24446;DHT22;13347;50.984;5.822;2023-03-23T10:54:26;11.90;99.90
24446;DHT22;13347;50.984;5.822;2023-03-23T10:56:55;11.70;99.90
24446;DHT22;13347;50.984;5.822;2023-03-23T10:59:26;11.50;99.90
24446;DHT22;13347;50.984;5.822;2023-03-23T11:01:54;11.20;99.90
24446;DHT22;13347;50.984;5.822;2023-03-23T11:04:22;11.30;99.90
24446;DHT22;13347;50.984;5.822;2023-03-23T11:06:51;11.20;99.90
24446;DHT22;13347;50.984;5.822;2023-03-23T11:09:19;11.20;99.90
24446;DHT22;13347;50.984;5.822;2023-03-23T11:11:48;11.20;99.90
24446;DHT22;13347;50.984;5.822;2023-03-23T11:14:18;11.20;99.90
24446;DHT22;13347;50.984;5.822;2023-03-23T11:16:49;11.20;99.90
24446;DHT22;13347;50.984;5.822;2023-03-23T11:19:21;11.30;99.90
24446;DHT22;13347;50.984;5.822;2023-03-23T11:21:49;11.10;99.90
24446;DHT22;13347;50.984;5.822;2023-03-23T11:24:18;11.00;99.90
24446;DHT22;13347;50.984;5.822;2023-03-23T11:26:45;11.10;99.90
24446;DHT22;13347;50.984;5.822;2023-03-23T11:29:13;11.10;99.90
24446;DHT22;13347;50.984;5.822;2023-03-23T11:31:43;11.20;99.90
24446;DHT22;13347;50.984;5.822;2023-03-23T11:34:12;11.30;99.90
24446;DHT22;13347;50.984;5.822;2023-03-23T11:36:41;11.20;99.90
24446;DHT22;13347;50.984;5.822;2023-03-23T11:39:19;11.40;99.90
24446;DHT22;13347;50.984;5.822;2023-03-23T11:41:47;11.40;99.90
24446;DHT22;13347;50.984;5.822;2023-03-23T11:44:14;11.50;99.90
24446;DHT22;13347;50.984;5.822;2023-03-23T11:46:47;11.70;99.90
24446;DHT22;13347;50.984;5.822;2023-03-23T11:49:20;11.90;99.90
24446;DHT22;13347;50.984;5.822;2023-03-23T11:51:49;11.90;99.90
24446;DHT22;13347;50.984;5.822;2023-03-23T11:54:17;11.80;99.90
24446;DHT22;13347;50.984;5.822;2023-03-23T11:56:46;11.70;99.90
24446;DHT22;13347;50.984;5.822;2023-03-23T11:59:13;11.70;99.90
24446;DHT22;13347;50.984;5.822;2023-03-23T12:01:48;11.80;99.90
24446;DHT22;13347;50.984;5.822;2023-03-23T12:04:30;11.90;99.90
24446;DHT22;13347;50.984;5.822;2023-03-23T12:07:11;11.90;99.90
24446;DHT22;13347;50.984;5.822;2023-03-23T12:09:43;12.10;99.90
24446;DHT22;13347;50.984;5.822;2023-03-23T12:12:14;12.20;99.90
24446;DHT22;13347;50.984;5.822;2023-03-23T12:14:47;12.40;99.90
24446;DHT22;13347;50.984;5.822;2023-03-23T12:17:20;12.50;99.90
24446;DHT22;13347;50.984;5.822;2023-03-23T12:19:52;12.70;99.90
24446;DHT22;13347;50.984;5.822;2023-03-23T12:22:30;12.90;99.90
24446;DHT22;13347;50.984;5.822;2023-03-23T12:25:04;12.80;99.90
24446;DHT22;13347;50.984;5.822;2023-03-23T12:27:35;12.70;99.90
24446;DHT22;13347;50.984;5.822;2023-03-23T12:30:17;12.60;99.90
24446;DHT22;13347;50.984;5.822;2023-03-23T12:33:01;12.80;99.90
24446;DHT22;13347;50.984;5.822;2023-03-23T12:35:34;13.10;99.90
24446;DHT22;13347;50.984;5.822;2023-03-23T12:38:07;13.50;99.90
24446;DHT22;13347;50.984;5.822;2023-03-23T12:40:40;13.70;99.90
24446;DHT22;13347;50.984;5.822;2023-03-23T12:43:12;13.90;95.60
24446;DHT22;13347;50.984;5.822;2023-03-23T12:45:47;13.90;3.80
24446;DHT22;13347;50.984;5.822;2023-03-23T12:48:18;14.10;1.00
24446;DHT22;13347;50.984;5.822;2023-03-23T12:50:59;13.90;1.00
24446;DHT22;13347;50.984;5.822;2023-03-23T12:53:28;14.10;1.00
24446;DHT22;13347;50.984;5.822;2023-03-23T12:56:04;14.20;1.00
24446;DHT22;13347;50.984;5.822;2023-03-23T12:58:34;14.10;1.00
24446;DHT22;13347;50.984;5.822;2023-03-23T13:01:04;14.00;1.00
24446;DHT22;13347;50.984;5.822;2023-03-23T13:03:38;14.20;1.00
24446;DHT22;13347;50.984;5.822;2023-03-23T13:06:08;14.20;1.00
24446;DHT22;13347;50.984;5.822;2023-03-23T13:08:37;14.10;1.00
24446;DHT22;13347;50.984;5.822;2023-03-23T13:11:08;13.80;1.00
24446;DHT22;13347;50.984;5.822;2023-03-23T13:13:41;13.70;1.00
24446;DHT22;13347;50.984;5.822;2023-03-23T13:16:10;13.70;1.00
24446;DHT22;13347;50.984;5.822;2023-03-23T13:18:41;13.90;1.00
24446;DHT22;13347;50.984;5.822;2023-03-23T13:21:14;13.70;1.00
24446;DHT22;13347;50.984;5.822;2023-03-23T13:23:41;13.80;1.00
24446;DHT22;13347;50.984;5.822;2023-03-23T13:26:10;14.00;99.90
24446;DHT22;13347;50.984;5.822;2023-03-23T13:28:48;14.20;1.00
24446;DHT22;13347;50.984;5.822;2023-03-23T13:31:15;14.20;1.00
24446;DHT22;13347;50.984;5.822;2023-03-23T13:33:48;14.30;1.00
24446;DHT22;13347;50.984;5.822;2023-03-23T13:36:25;14.20;1.00
24446;DHT22;13347;50.984;5.822;2023-03-23T13:38:52;14.20;1.00
24446;DHT22;13347;50.984;5.822;2023-03-23T13:41:19;14.20;99.90
24446;DHT22;13347;50.984;5.822;2023-03-23T13:43:47;14.30;99.90
24446;DHT22;13347;50.984;5.822;2023-03-23T13:46:25;14.30;99.90
24446;DHT22;13347;50.984;5.822;2023-03-23T13:49:14;14.50;99.90
24446;DHT22;13347;50.984;5.822;2023-03-23T13:51:47;14.20;99.90
24446;DHT22;13347;50.984;5.822;2023-03-23T13:54:19;14.20;99.90
24446;DHT22;13347;50.984;5.822;2023-03-23T13:56:51;14.00;99.90
24446;DHT22;13347;50.984;5.822;2023-03-23T13:59:28;13.80;1.00
24446;DHT22;13347;50.984;5.822;2023-03-23T14:01:56;13.70;1.00
24446;DHT22;13347;50.984;5.822;2023-03-23T14:04:44;13.70;99.90
24446;DHT22;13347;50.984;5.822;2023-03-23T14:07:15;13.70;1.00
24446;DHT22;13347;50.984;5.822;2023-03-23T14:09:44;13.60;99.90
24446;DHT22;13347;50.984;5.822;2023-03-23T14:12:14;13.50;99.90
24446;DHT22;13347;50.984;5.822;2023-03-23T14:14:43;13.80;1.00
24446;DHT22;13347;50.984;5.822;2023-03-23T14:17:12;13.80;99.90
24446;DHT22;13347;50.984;5.822;2023-03-23T14:19:40;13.80;1.00
24446;DHT22;13347;50.984;5.822;2023-03-23T14:22:18;13.70;1.00
24446;DHT22;13347;50.984;5.822;2023-03-23T14:24:45;13.70;1.00
24446;DHT22;13347;50.984;5.822;2023-03-23T14:27:12;13.70;1.00
24446;DHT22;13347;50.984;5.822;2023-03-23T14:29:39;13.90;1.00
24446;DHT22;13347;50.984;5.822;2023-03-23T14:32:07;14.10;99.90
24446;DHT22;13347;50.984;5.822;2023-03-23T14:34:34;14.70;1.00
24446;DHT22;13347;50.984;5.822;2023-03-23T14:37:01;15.00;1.00
24446;DHT22;13347;50.984;5.822;2023-03-23T14:39:30;15.30;99.90
24446;DHT22;13347;50.984;5.822;2023-03-23T14:42:00;15.50;1.00
24446;DHT22;13347;50.984;5.822;2023-03-23T14:44:29;15.40;1.00
24446;DHT22;13347;50.984;5.822;2023-03-23T14:47:00;15.40;1.00
24446;DHT22;13347;50.984;5.822;2023-03-23T14:49:30;15.50;99.90
24446;DHT22;13347;50.984;5.822;2023-03-23T14:52:01;15.30;99.90
24446;DHT22;13347;50.984;5.822;2023-03-23T14:54:31;15.40;99.90
24446;DHT22;13347;50.984;5.822;2023-03-23T14:57:02;15.20;1.00
24446;DHT22;13347;50.984;5.822;2023-03-23T14:59:30;15.00;1.00
24446;DHT22;13347;50.984;5.822;2023-03-23T15:01:57;14.90;1.00
24446;DHT22;13347;50.984;5.822;2023-03-23T15:04:27;14.90;1.00
24446;DHT22;13347;50.984;5.822;2023-03-23T15:06:54;15.10;1.00
24446;DHT22;13347;50.984;5.822;2023-03-23T15:09:22;15.50;1.00
24446;DHT22;13347;50.984;5.822;2023-03-23T15:11:53;15.60;1.00
24446;DHT22;13347;50.984;5.822;2023-03-23T15:14:22;15.60;1.00
24446;DHT22;13347;50.984;5.822;2023-03-23T15:16:49;15.40;1.00
24446;DHT22;13347;50.984;5.822;2023-03-23T15:19:19;15.40;1.00
24446;DHT22;13347;50.984;5.822;2023-03-23T15:21:47;15.30;99.90
24446;DHT22;13347;50.984;5.822;2023-03-23T15:24:19;15.30;99.90
24446;DHT22;13347;50.984;5.822;2023-03-23T15:26:46;15.30;99.90
24446;DHT22;13347;50.984;5.822;2023-03-23T15:29:17;15.40;82.60
24446;DHT22;13347;50.984;5.822;2023-03-23T15:31:44;15.50;99.90
24446;DHT22;13347;50.984;5.822;2023-03-23T15:34:16;15.50;1.00
24446;DHT22;13347;50.984;5.822;2023-03-23T15:36:44;15.50;1.00
24446;DHT22;13347;50.984;5.822;2023-03-23T15:39:12;15.40;1.00
24446;DHT22;13347;50.984;5.822;2023-03-23T15:41:45;15.40;1.00
24446;DHT22;13347;50.984;5.822;2023-03-23T15:44:18;15.30;1.00
24446;DHT22;13347;50.984;5.822;2023-03-23T15:46:49;15.40;1.00
24446;DHT22;13347;50.984;5.822;2023-03-23T15:49:16;15.40;1.00
24446;DHT22;13347;50.984;5.822;2023-03-23T15:51:43;15.30;1.00
24446;DHT22;13347;50.984;5.822;2023-03-23T15:54:12;15.30;1.00